sensor_id;sensor_type;location;lat;lon;timestamp;temperature;humidity
5881;DHT22;2966;52.598;10.928;2023-02-28T00:01:28;-2.80;99.90
5881;DHT22;2966;52.598;10.928;2023-02-28T00:03:55;-2.80;99.90
5881;DHT22;2966;52.598;10.928;2023-02-28T00:06:22;-2.70;99.90
5881;DHT22;2966;52.598;10.928;2023-02-28T00:08:49;-2.70;99.90
5881;DHT22;2966;52.598;10.928;2023-02-28T00:11:16;-2.70;99.90
5881;DHT22;2966;52.598;10.928;2023-02-28T00:13:45;-2.60;99.90
5881;DHT22;2966;52.598;10.928;2023-02-28T00:16:17;-2.60;99.90
5881;DHT22;2966;52.598;10.928;2023-02-28T00:18:46;-2.70;99.90
5881;DHT22;2966;52.598;10.928;2023-02-28T00:21:14;-2.70;99.90
5881;DHT22;2966;52.598;10.928;2023-02-28T00:23:41;-2.70;99.90
5881;DHT22;2966;52.598;10.928;2023-02-28T00:26:07;-2.80;99.90
5881;DHT22;2966;52.598;10.928;2023-02-28T00:28:34;-2.80;99.90
5881;DHT22;2966;52.598;10.928;2023-02-28T00:31:01;-2.80;99.90
5881;DHT22;2966;52.598;10.928;2023-02-28T00:33:28;-2.80;99.90
5881;DHT22;2966;52.598;10.928;2023-02-28T00:36:05;-2.70;99.90
5881;DHT22;2966;52.598;10.928;2023-02-28T00:38:32;-2.70;99.90
5881;DHT22;2966;52.598;10.928;2023-02-28T00:40:58;-2.70;99.90
5881;DHT22;2966;52.598;10.928;2023-02-28T00:43:30;-2.60;99.90
5881;DHT22;2966;52.598;10.928;2023-02-28T00:45:57;-2.70;99.90
5881;DHT22;2966;52.598;10.928;2023-02-28T00:48:24;-2.70;99.90
5881;DHT22;2966;52.598;10.928;2023-02-28T00:50:51;-2.60;99.90
5881;DHT22;2966;52.598;10.928;2023-02-28T00:53:19;-2.70;99.90
5881;DHT22;2966;52.598;10.928;2023-02-28T00:55:46;-2.70;99.90
5881;DHT22;2966;52.598;10.928;2023-02-28T00:58:13;-2.60;99.90
5881;DHT22;2966;52.598;10.928;2023-02-28T01:00:40;-2.60;99.90
5881;DHT22;2966;52.598;10.928;2023-02-28T01:03:06;-2.50;99.90
5881;DHT22;2966;52.598;10.928;2023-02-28T01:05:33;-2.50;99.90
5881;DHT22;2966;52.598;10.928;2023-02-28T01:08:00;-2.50;99.90
5881;DHT22;2966;52.598;10.928;2023-02-28T01:10:29;-2.50;99.90
5881;DHT22;2966;52.598;10.928;2023-02-28T01:12:57;-2.60;99.90
5881;DHT22;2966;52.598;10.928;2023-02-28T01:15:24;-2.50;99.90
5881;DHT22;2966;52.598;10.928;2023-02-28T01:17:50;-2.40;99.90
5881;DHT22;2966;52.598;10.928;2023-02-28T01:20:17;-2.40;99.90
5881;DHT22;2966;52.598;10.928;2023-02-28T01:22:44;-2.40;99.90
5881;DHT22;2966;52.598;10.928;2023-02-28T01:25:12;-2.40;99.90
5881;DHT22;2966;52.598;10.928;2023-02-28T01:27:40;-2.40;99.90
5881;DHT22;2966;52.598;10.928;2023-02-28T01:30:10;-2.40;99.90
5881;DHT22;2966;52.598;10.928;2023-02-28T01:32:37;-2.40;99.90
5881;DHT22;2966;52.598;10.928;2023-02-28T01:35:04;-2.50;99.90
5881;DHT22;2966;52.598;10.928;2023-02-28T01:37:31;-2.50;99.90
5881;DHT22;2966;52.598;10.928;2023-02-28T01:39:58;-2.40;99.90
5881;DHT22;2966;52.598;10.928;2023-02-28T01:42:24;-2.50;99.90
5881;DHT22;2966;52.598;10.928;2023-02-28T01:45:00;-2.50;99.90
5881;DHT22;2966;52.598;10.928;2023-02-28T01:47:29;-2.50;99.90
5881;DHT22;2966;52.598;10.928;2023-02-28T01:49:58;-2.40;99.90
5881;DHT22;2966;52.598;10.928;2023-02-28T01:52:27;-2.40;99.90
5881;DHT22;2966;52.598;10.928;2023-02-28T01:54:56;-2.40;99.90
5881;DHT22;2966;52.598;10.928;2023-02-28T01:57:27;-2.50;99.90
5881;DHT22;2966;52.598;10.928;2023-02-28T01:59:59;-2.50;99.90
5881;DHT22;2966;52.598;10.928;2023-02-28T02:02:29;-2.60;99.90
5881;DHT22;2966;52.598;10.928;2023-02-28T02:04:59;-2.60;99.90
5881;DHT22;2966;52.598;10.928;2023-02-28T02:07:29;-2.70;99.90
5881;DHT22;2966;52.598;10.928;2023-02-28T02:10:04;-2.70;99.90
5881;DHT22;2966;52.598;10.928;2023-02-28T02:12:41;-2.80;99.90
5881;DHT22;2966;52.598;10.928;2023-02-28T02:15:12;-2.80;99.90
5881;DHT22;2966;52.598;10.928;2023-02-28T02:17:43;-2.90;99.90
5881;DHT22;2966;52.598;10.928;2023-02-28T02:20:49;-2.90;99.90
5881;DHT22;2966;52.598;10.928;2023-02-28T02:23:44;-3.00;99.90
5881;DHT22;2966;52.598;10.928;2023-02-28T02:26:44;-3.00;99.90
5881;DHT22;2966;52.598;10.928;2023-02-28T02:29:35;-3.00;99.90
5881;DHT22;2966;52.598;10.928;2023-02-28T02:32:22;-3.10;99.90
5881;DHT22;2966;52.598;10.928;2023-02-28T02:34:58;-3.10;99.90
5881;DHT22;2966;52.598;10.928;2023-02-28T02:37:31;-3.10;99.90
5881;DHT22;2966;52.598;10.928;2023-02-28T02:40:09;-3.20;99.90
5881;DHT22;2966;52.598;10.928;2023-02-28T02:42:44;-3.20;99.90
5881;DHT22;2966;52.598;10.928;2023-02-28T02:45:14;-3.20;99.90
5881;DHT22;2966;52.598;10.928;2023-02-28T02:47:43;-3.30;99.90
5881;DHT22;2966;52.598;10.928;2023-02-28T02:50:15;-3.30;99.90
5881;DHT22;2966;52.598;10.928;2023-02-28T02:52:46;-3.30;99.90
5881;DHT22;2966;52.598;10.928;2023-02-28T02:55:17;-3.30;99.90
5881;DHT22;2966;52.598;10.928;2023-02-28T02:57:47;-3.40;99.90
5881;DHT22;2966;52.598;10.928;2023-02-28T03:00:17;-3.40;99.90
5881;DHT22;2966;52.598;10.928;2023-02-28T03:02:46;-3.40;99.90
5881;DHT22;2966;52.598;10.928;2023-02-28T03:05:19;-3.50;99.90
5881;DHT22;2966;52.598;10.928;2023-02-28T03:07:46;-3.50;99.90
5881;DHT22;2966;52.598;10.928;2023-02-28T03:10:33;-3.50;99.90
5881;DHT22;2966;52.598;10.928;2023-02-28T03:13:17;-3.50;99.90
5881;DHT22;2966;52.598;10.928;2023-02-28T03:15:58;-3.60;99.90
5881;DHT22;2966;52.598;10.928;2023-02-28T03:18:33;-3.60;99.90
5881;DHT22;2966;52.598;10.928;2023-02-28T03:21:08;-3.60;99.90
5881;DHT22;2966;52.598;10.928;2023-02-28T03:23:46;-3.60;99.90
5881;DHT22;2966;52.598;10.928;2023-02-28T03:26:19;-3.60;99.90
5881;DHT22;2966;52.598;10.928;2023-02-28T03:28:52;-3.60;99.90
5881;DHT22;2966;52.598;10.928;2023-02-28T03:31:27;-3.60;99.90
5881;DHT22;2966;52.598;10.928;2023-02-28T03:34:05;-3.60;99.90
5881;DHT22;2966;52.598;10.928;2023-02-28T03:36:37;-3.60;99.90
5881;DHT22;2966;52.598;10.928;2023-02-28T03:39:11;-3.70;99.90
5881;DHT22;2966;52.598;10.928;2023-02-28T03:41:42;-3.70;99.90
5881;DHT22;2966;52.598;10.928;2023-02-28T03:44:12;-3.70;99.90
5881;DHT22;2966;52.598;10.928;2023-02-28T03:46:44;-3.70;99.90
5881;DHT22;2966;52.598;10.928;2023-02-28T03:49:15;-3.70;99.90
5881;DHT22;2966;52.598;10.928;2023-02-28T03:51:45;-3.70;99.90
5881;DHT22;2966;52.598;10.928;2023-02-28T03:54:15;-3.80;99.90
5881;DHT22;2966;52.598;10.928;2023-02-28T03:56:47;-3.80;99.90
5881;DHT22;2966;52.598;10.928;2023-02-28T03:59:17;-3.80;99.90
5881;DHT22;2966;52.598;10.928;2023-02-28T04:01:47;-3.80;99.90
5881;DHT22;2966;52.598;10.928;2023-02-28T04:04:15;-3.70;99.90
5881;DHT22;2966;52.598;10.928;2023-02-28T04:06:44;-3.80;99.90
5881;DHT22;2966;52.598;10.928;2023-02-28T04:09:13;-3.70;99.90
5881;DHT22;2966;52.598;10.928;2023-02-28T04:11:41;-3.70;99.90
5881;DHT22;2966;52.598;10.928;2023-02-28T04:14:09;-3.80;99.90
5881;DHT22;2966;52.598;10.928;2023-02-28T04:16:38;-3.80;99.90
5881;DHT22;2966;52.598;10.928;2023-02-28T04:19:07;-3.80;99.90
5881;DHT22;2966;52.598;10.928;2023-02-28T04:21:37;-3.90;99.90
5881;DHT22;2966;52.598;10.928;2023-02-28T04:24:09;-3.90;99.90
5881;DHT22;2966;52.598;10.928;2023-02-28T04:26:41;-3.80;99.90
5881;DHT22;2966;52.598;10.928;2023-02-28T04:29:10;-3.80;99.90
5881;DHT22;2966;52.598;10.928;2023-02-28T04:31:37;-3.90;99.90
5881;DHT22;2966;52.598;10.928;2023-02-28T04:34:04;-3.80;99.90
5881;DHT22;2966;52.598;10.928;2023-02-28T04:36:31;-3.80;99.90
5881;DHT22;2966;52.598;10.928;2023-02-28T04:38:58;-3.90;99.90
5881;DHT22;2966;52.598;10.928;2023-02-28T04:41:26;-3.90;99.90
5881;DHT22;2966;52.598;10.928;2023-02-28T04:43:53;-3.90;99.90
5881;DHT22;2966;52.598;10.928;2023-02-28T04:46:21;-3.90;99.90
5881;DHT22;2966;52.598;10.928;2023-02-28T04:48:49;-3.90;99.90
5881;DHT22;2966;52.598;10.928;2023-02-28T04:51:17;-3.90;99.90
5881;DHT22;2966;52.598;10.928;2023-02-28T04:53:45;-4.00;99.90
5881;DHT22;2966;52.598;10.928;2023-02-28T04:56:13;-4.00;99.90
5881;DHT22;2966;52.598;10.928;2023-02-28T04:58:41;-4.00;99.90
5881;DHT22;2966;52.598;10.928;2023-02-28T05:01:18;-4.10;99.90
5881;DHT22;2966;52.598;10.928;2023-02-28T05:03:45;-4.10;99.90
5881;DHT22;2966;52.598;10.928;2023-02-28T05:06:12;-4.20;99.90
5881;DHT22;2966;52.598;10.928;2023-02-28T05:08:39;-4.20;99.90
5881;DHT22;2966;52.598;10.928;2023-02-28T05:11:07;-4.20;99.90
5881;DHT22;2966;52.598;10.928;2023-02-28T05:13:40;-4.20;99.90
5881;DHT22;2966;52.598;10.928;2023-02-28T05:16:07;-4.20;99.90
5881;DHT22;2966;52.598;10.928;2023-02-28T05:18:34;-4.20;99.90
5881;DHT22;2966;52.598;10.928;2023-02-28T05:21:00;-4.30;99.90
5881;DHT22;2966;52.598;10.928;2023-02-28T05:23:28;-4.30;99.90
5881;DHT22;2966;52.598;10.928;2023-02-28T05:25:55;-4.40;99.90
5881;DHT22;2966;52.598;10.928;2023-02-28T05:28:22;-4.50;99.90
5881;DHT22;2966;52.598;10.928;2023-02-28T05:30:50;-4.50;99.90
5881;DHT22;2966;52.598;10.928;2023-02-28T05:33:17;-4.50;99.90
5881;DHT22;2966;52.598;10.928;2023-02-28T05:35:44;-4.50;99.90
5881;DHT22;2966;52.598;10.928;2023-02-28T05:38:10;-4.50;99.90
5881;DHT22;2966;52.598;10.928;2023-02-28T05:40:38;-4.60;99.90
5881;DHT22;2966;52.598;10.928;2023-02-28T05:43:05;-4.60;99.90
5881;DHT22;2966;52.598;10.928;2023-02-28T05:45:32;-4.60;99.90
5881;DHT22;2966;52.598;10.928;2023-02-28T05:48:00;-4.60;99.90
5881;DHT22;2966;52.598;10.928;2023-02-28T05:50:27;-4.60;99.90
5881;DHT22;2966;52.598;10.928;2023-02-28T05:52:54;-4.60;99.90
5881;DHT22;2966;52.598;10.928;2023-02-28T05:55:21;-4.60;99.90
5881;DHT22;2966;52.598;10.928;2023-02-28T05:57:48;-4.60;99.90
5881;DHT22;2966;52.598;10.928;2023-02-28T06:00:15;-4.60;99.90
5881;DHT22;2966;52.598;10.928;2023-02-28T06:02:43;-4.70;99.90
5881;DHT22;2966;52.598;10.928;2023-02-28T06:05:14;-4.60;99.90
5881;DHT22;2966;52.598;10.928;2023-02-28T06:07:42;-4.60;99.90
5881;DHT22;2966;52.598;10.928;2023-02-28T06:10:10;-4.60;99.90
5881;DHT22;2966;52.598;10.928;2023-02-28T06:12:37;-4.60;99.90
5881;DHT22;2966;52.598;10.928;2023-02-28T06:15:05;-4.60;99.90
5881;DHT22;2966;52.598;10.928;2023-02-28T06:17:32;-4.60;99.90
5881;DHT22;2966;52.598;10.928;2023-02-28T06:19:59;-4.60;99.90
5881;DHT22;2966;52.598;10.928;2023-02-28T06:22:27;-4.60;99.90
5881;DHT22;2966;52.598;10.928;2023-02-28T06:24:54;-4.50;99.90
5881;DHT22;2966;52.598;10.928;2023-02-28T06:27:22;-4.50;99.90
5881;DHT22;2966;52.598;10.928;2023-02-28T06:29:49;-4.50;99.90
5881;DHT22;2966;52.598;10.928;2023-02-28T06:32:19;-4.40;99.90
5881;DHT22;2966;52.598;10.928;2023-02-28T06:34:46;-4.40;99.90
5881;DHT22;2966;52.598;10.928;2023-02-28T06:37:13;-4.40;99.90
5881;DHT22;2966;52.598;10.928;2023-02-28T06:39:41;-4.40;99.90
5881;DHT22;2966;52.598;10.928;2023-02-28T06:42:08;-4.30;99.90
5881;DHT22;2966;52.598;10.928;2023-02-28T06:44:35;-4.30;99.90
5881;DHT22;2966;52.598;10.928;2023-02-28T06:47:02;-4.30;99.90
5881;DHT22;2966;52.598;10.928;2023-02-28T06:49:30;-4.30;99.90
5881;DHT22;2966;52.598;10.928;2023-02-28T06:51:56;-4.20;99.90
5881;DHT22;2966;52.598;10.928;2023-02-28T06:54:23;-4.10;99.90
5881;DHT22;2966;52.598;10.928;2023-02-28T06:56:51;-4.00;99.90
5881;DHT22;2966;52.598;10.928;2023-02-28T06:59:20;-3.80;99.90
5881;DHT22;2966;52.598;10.928;2023-02-28T07:01:46;-3.70;99.90
5881;DHT22;2966;52.598;10.928;2023-02-28T07:04:13;-3.70;99.90
5881;DHT22;2966;52.598;10.928;2023-02-28T07:06:40;-3.60;99.90
5881;DHT22;2966;52.598;10.928;2023-02-28T07:09:07;-3.50;99.90
5881;DHT22;2966;52.598;10.928;2023-02-28T07:11:33;-3.40;99.90
5881;DHT22;2966;52.598;10.928;2023-02-28T07:14:02;-3.30;99.90
5881;DHT22;2966;52.598;10.928;2023-02-28T07:16:28;-3.20;99.90
5881;DHT22;2966;52.598;10.928;2023-02-28T07:18:55;-3.10;99.90
5881;DHT22;2966;52.598;10.928;2023-02-28T07:21:22;-2.90;99.90
5881;DHT22;2966;52.598;10.928;2023-02-28T07:23:50;-2.80;99.90
5881;DHT22;2966;52.598;10.928;2023-02-28T07:26:19;-2.60;99.90
5881;DHT22;2966;52.598;10.928;2023-02-28T07:28:47;-2.50;99.90
5881;DHT22;2966;52.598;10.928;2023-02-28T07:31:16;-2.40;99.90
5881;DHT22;2966;52.598;10.928;2023-02-28T07:33:46;-2.20;99.90
5881;DHT22;2966;52.598;10.928;2023-02-28T07:36:16;-2.10;99.90
5881;DHT22;2966;52.598;10.928;2023-02-28T07:38:45;-1.90;99.90
5881;DHT22;2966;52.598;10.928;2023-02-28T07:41:13;-1.80;99.90
5881;DHT22;2966;52.598;10.928;2023-02-28T07:43:40;-1.60;99.90
5881;DHT22;2966;52.598;10.928;2023-02-28T07:46:10;-1.40;99.90
5881;DHT22;2966;52.598;10.928;2023-02-28T07:48:38;-1.20;99.90
5881;DHT22;2966;52.598;10.928;2023-02-28T07:51:05;-1.10;99.90
5881;DHT22;2966;52.598;10.928;2023-02-28T07:53:32;-1.00;99.90
5881;DHT22;2966;52.598;10.928;2023-02-28T07:56:00;-0.90;99.90
5881;DHT22;2966;52.598;10.928;2023-02-28T07:58:28;-0.80;99.90
5881;DHT22;2966;52.598;10.928;2023-02-28T08:00:55;-0.70;99.90
5881;DHT22;2966;52.598;10.928;2023-02-28T08:03:23;-0.60;99.90
5881;DHT22;2966;52.598;10.928;2023-02-28T08:05:51;-0.40;99.90
5881;DHT22;2966;52.598;10.928;2023-02-28T08:08:19;-0.30;99.90
5881;DHT22;2966;52.598;10.928;2023-02-28T08:10:45;-0.20;99.90
5881;DHT22;2966;52.598;10.928;2023-02-28T08:13:12;-0.10;99.90
5881;DHT22;2966;52.598;10.928;2023-02-28T08:15:40;0.00;99.90
5881;DHT22;2966;52.598;10.928;2023-02-28T08:18:07;0.10;99.90
5881;DHT22;2966;52.598;10.928;2023-02-28T08:20:34;0.20;99.90
5881;DHT22;2966;52.598;10.928;2023-02-28T08:23:02;0.30;99.90
5881;DHT22;2966;52.598;10.928;2023-02-28T08:25:29;0.40;99.90
5881;DHT22;2966;52.598;10.928;2023-02-28T08:27:55;0.50;99.90
5881;DHT22;2966;52.598;10.928;2023-02-28T08:30:22;0.50;99.90
5881;DHT22;2966;52.598;10.928;2023-02-28T08:32:49;0.70;99.90
5881;DHT22;2966;52.598;10.928;2023-02-28T08:35:16;0.80;99.90
5881;DHT22;2966;52.598;10.928;2023-02-28T08:37:43;0.90;99.90
5881;DHT22;2966;52.598;10.928;2023-02-28T08:40:11;1.00;99.90
5881;DHT22;2966;52.598;10.928;2023-02-28T08:42:43;1.10;99.90
5881;DHT22;2966;52.598;10.928;2023-02-28T08:45:10;1.30;99.90
5881;DHT22;2966;52.598;10.928;2023-02-28T08:47:37;1.40;99.90
5881;DHT22;2966;52.598;10.928;2023-02-28T08:50:05;1.50;99.90
5881;DHT22;2966;52.598;10.928;2023-02-28T08:52:31;1.60;99.90
5881;DHT22;2966;52.598;10.928;2023-02-28T08:54:58;1.70;99.90
5881;DHT22;2966;52.598;10.928;2023-02-28T08:57:26;1.80;99.90
5881;DHT22;2966;52.598;10.928;2023-02-28T08:59:53;1.90;99.90
5881;DHT22;2966;52.598;10.928;2023-02-28T09:02:20;2.00;99.90
5881;DHT22;2966;52.598;10.928;2023-02-28T09:04:47;2.00;99.90
5881;DHT22;2966;52.598;10.928;2023-02-28T09:07:13;2.10;99.90
5881;DHT22;2966;52.598;10.928;2023-02-28T09:09:43;2.10;99.90
5881;DHT22;2966;52.598;10.928;2023-02-28T09:12:20;2.20;99.90
5881;DHT22;2966;52.598;10.928;2023-02-28T09:14:48;2.20;99.90
5881;DHT22;2966;52.598;10.928;2023-02-28T09:17:14;2.30;99.90
5881;DHT22;2966;52.598;10.928;2023-02-28T09:19:42;2.40;99.90
5881;DHT22;2966;52.598;10.928;2023-02-28T09:22:09;2.50;99.90
5881;DHT22;2966;52.598;10.928;2023-02-28T09:24:36;2.50;99.90
5881;DHT22;2966;52.598;10.928;2023-02-28T09:27:03;2.60;99.90
5881;DHT22;2966;52.598;10.928;2023-02-28T09:29:30;2.60;99.90
5881;DHT22;2966;52.598;10.928;2023-02-28T09:31:59;2.60;99.90
5881;DHT22;2966;52.598;10.928;2023-02-28T09:34:26;2.70;99.90
5881;DHT22;2966;52.598;10.928;2023-02-28T09:36:52;2.80;99.90
5881;DHT22;2966;52.598;10.928;2023-02-28T09:39:20;2.80;99.90
5881;DHT22;2966;52.598;10.928;2023-02-28T09:41:50;2.80;99.90
5881;DHT22;2966;52.598;10.928;2023-02-28T09:44:22;3.00;99.90
5881;DHT22;2966;52.598;10.928;2023-02-28T09:46:55;3.00;99.90
5881;DHT22;2966;52.598;10.928;2023-02-28T09:49:31;3.00;99.90
5881;DHT22;2966;52.598;10.928;2023-02-28T09:52:01;3.00;99.90
5881;DHT22;2966;52.598;10.928;2023-02-28T09:54:30;3.00;99.90
5881;DHT22;2966;52.598;10.928;2023-02-28T09:57:02;3.10;99.90
5881;DHT22;2966;52.598;10.928;2023-02-28T09:59:49;3.10;99.90
5881;DHT22;2966;52.598;10.928;2023-02-28T10:02:38;3.20;99.90
5881;DHT22;2966;52.598;10.928;2023-02-28T10:05:11;3.30;99.90
5881;DHT22;2966;52.598;10.928;2023-02-28T10:07:50;3.40;99.90
5881;DHT22;2966;52.598;10.928;2023-02-28T10:10:24;3.40;99.90
5881;DHT22;2966;52.598;10.928;2023-02-28T10:12:55;3.50;99.90
5881;DHT22;2966;52.598;10.928;2023-02-28T10:15:25;3.50;99.90
5881;DHT22;2966;52.598;10.928;2023-02-28T10:17:56;3.50;99.90
5881;DHT22;2966;52.598;10.928;2023-02-28T10:20:25;3.50;99.90
5881;DHT22;2966;52.598;10.928;2023-02-28T10:23:00;3.50;99.90
5881;DHT22;2966;52.598;10.928;2023-02-28T10:25:34;3.70;99.90
5881;DHT22;2966;52.598;10.928;2023-02-28T10:28:09;3.70;99.90
5881;DHT22;2966;52.598;10.928;2023-02-28T10:30:38;3.80;99.90
5881;DHT22;2966;52.598;10.928;2023-02-28T10:33:17;3.70;99.90
5881;DHT22;2966;52.598;10.928;2023-02-28T10:35:46;3.70;99.90
5881;DHT22;2966;52.598;10.928;2023-02-28T10:38:16;3.60;99.90
5881;DHT22;2966;52.598;10.928;2023-02-28T10:40:44;3.60;99.90
5881;DHT22;2966;52.598;10.928;2023-02-28T10:43:19;3.50;99.90
5881;DHT22;2966;52.598;10.928;2023-02-28T10:46:01;3.50;99.90
5881;DHT22;2966;52.598;10.928;2023-02-28T10:48:34;3.40;99.90
5881;DHT22;2966;52.598;10.928;2023-02-28T10:51:05;3.30;99.90
5881;DHT22;2966;52.598;10.928;2023-02-28T10:53:35;3.30;99.90
5881;DHT22;2966;52.598;10.928;2023-02-28T10:56:05;3.40;99.90
5881;DHT22;2966;52.598;10.928;2023-02-28T10:58:46;3.60;99.90
5881;DHT22;2966;52.598;10.928;2023-02-28T11:01:18;3.70;99.90
5881;DHT22;2966;52.598;10.928;2023-02-28T11:03:45;3.60;99.90
5881;DHT22;2966;52.598;10.928;2023-02-28T11:06:17;3.60;99.90
5881;DHT22;2966;52.598;10.928;2023-02-28T11:08:48;3.70;99.90
5881;DHT22;2966;52.598;10.928;2023-02-28T11:11:16;3.90;99.90
5881;DHT22;2966;52.598;10.928;2023-02-28T11:13:44;3.80;99.90
5881;DHT22;2966;52.598;10.928;2023-02-28T11:16:13;3.80;99.90
5881;DHT22;2966;52.598;10.928;2023-02-28T11:18:44;3.80;99.90
5881;DHT22;2966;52.598;10.928;2023-02-28T11:21:19;3.80;99.90
5881;DHT22;2966;52.598;10.928;2023-02-28T11:23:49;3.80;99.90
5881;DHT22;2966;52.598;10.928;2023-02-28T11:26:38;3.80;99.90
5881;DHT22;2966;52.598;10.928;2023-02-28T11:29:20;4.00;99.90
5881;DHT22;2966;52.598;10.928;2023-02-28T11:32:07;4.20;99.90
5881;DHT22;2966;52.598;10.928;2023-02-28T11:34:39;4.40;99.90
5881;DHT22;2966;52.598;10.928;2023-02-28T11:37:12;4.50;99.90
5881;DHT22;2966;52.598;10.928;2023-02-28T11:39:39;4.50;99.90
5881;DHT22;2966;52.598;10.928;2023-02-28T11:42:17;4.50;99.90
5881;DHT22;2966;52.598;10.928;2023-02-28T11:45:00;4.50;99.90
5881;DHT22;2966;52.598;10.928;2023-02-28T11:47:34;4.50;99.90
5881;DHT22;2966;52.598;10.928;2023-02-28T11:50:20;4.40;99.90
5881;DHT22;2966;52.598;10.928;2023-02-28T11:52:53;4.50;99.90
5881;DHT22;2966;52.598;10.928;2023-02-28T11:55:24;4.40;99.90
5881;DHT22;2966;52.598;10.928;2023-02-28T11:58:16;4.40;99.90
5881;DHT22;2966;52.598;10.928;2023-02-28T12:00:55;4.50;99.90
5881;DHT22;2966;52.598;10.928;2023-02-28T12:03:28;4.50;99.90
5881;DHT22;2966;52.598;10.928;2023-02-28T12:06:05;4.40;99.90
5881;DHT22;2966;52.598;10.928;2023-02-28T12:08:59;4.30;99.90
5881;DHT22;2966;52.598;10.928;2023-02-28T12:11:37;4.30;99.90
5881;DHT22;2966;52.598;10.928;2023-02-28T12:14:29;4.40;99.90
5881;DHT22;2966;52.598;10.928;2023-02-28T12:17:13;4.50;99.90
5881;DHT22;2966;52.598;10.928;2023-02-28T12:19:46;4.50;99.90
5881;DHT22;2966;52.598;10.928;2023-02-28T12:22:28;4.40;99.90
5881;DHT22;2966;52.598;10.928;2023-02-28T12:28:02;4.30;99.90
5881;DHT22;2966;52.598;10.928;2023-02-28T12:30:32;4.40;99.90
5881;DHT22;2966;52.598;10.928;2023-02-28T12:33:04;4.40;99.90
5881;DHT22;2966;52.598;10.928;2023-02-28T12:35:34;4.30;99.90
5881;DHT22;2966;52.598;10.928;2023-02-28T12:38:08;4.30;99.90
5881;DHT22;2966;52.598;10.928;2023-02-28T12:40:44;4.30;99.90
5881;DHT22;2966;52.598;10.928;2023-02-28T12:43:13;4.40;99.90
5881;DHT22;2966;52.598;10.928;2023-02-28T12:45:44;4.40;99.90
5881;DHT22;2966;52.598;10.928;2023-02-28T12:48:18;4.30;99.90
5881;DHT22;2966;52.598;10.928;2023-02-28T12:50:47;4.20;99.90
5881;DHT22;2966;52.598;10.928;2023-02-28T12:53:23;4.10;99.90
5881;DHT22;2966;52.598;10.928;2023-02-28T12:56:02;4.10;99.90
5881;DHT22;2966;52.598;10.928;2023-02-28T12:58:35;4.20;99.90
5881;DHT22;2966;52.598;10.928;2023-02-28T13:01:36;4.30;99.90
5881;DHT22;2966;52.598;10.928;2023-02-28T13:04:30;4.40;99.90
5881;DHT22;2966;52.598;10.928;2023-02-28T13:07:16;4.30;99.90
5881;DHT22;2966;52.598;10.928;2023-02-28T13:09:52;4.40;99.90
5881;DHT22;2966;52.598;10.928;2023-02-28T13:12:21;4.40;99.90
5881;DHT22;2966;52.598;10.928;2023-02-28T13:14:48;4.40;99.90
5881;DHT22;2966;52.598;10.928;2023-02-28T13:17:19;4.20;99.90
5881;DHT22;2966;52.598;10.928;2023-02-28T13:19:56;4.20;99.90
5881;DHT22;2966;52.598;10.928;2023-02-28T13:22:44;4.30;99.90
5881;DHT22;2966;52.598;10.928;2023-02-28T13:25:53;4.20;99.90
5881;DHT22;2966;52.598;10.928;2023-02-28T13:34:39;4.30;99.90
5881;DHT22;2966;52.598;10.928;2023-02-28T13:37:35;4.20;99.90
5881;DHT22;2966;52.598;10.928;2023-02-28T13:40:26;4.20;99.90
5881;DHT22;2966;52.598;10.928;2023-02-28T13:42:53;4.20;99.90
5881;DHT22;2966;52.598;10.928;2023-02-28T13:45:25;4.30;99.90
5881;DHT22;2966;52.598;10.928;2023-02-28T13:47:56;4.40;99.90
5881;DHT22;2966;52.598;10.928;2023-02-28T13:50:29;4.30;99.90
5881;DHT22;2966;52.598;10.928;2023-02-28T13:56:27;4.20;99.90
5881;DHT22;2966;52.598;10.928;2023-02-28T13:59:04;4.20;99.90
5881;DHT22;2966;52.598;10.928;2023-02-28T14:01:50;4.20;99.90
5881;DHT22;2966;52.598;10.928;2023-02-28T14:04:53;4.30;99.90
5881;DHT22;2966;52.598;10.928;2023-02-28T14:07:25;4.40;99.90
5881;DHT22;2966;52.598;10.928;2023-02-28T14:09:58;4.30;99.90
5881;DHT22;2966;52.598;10.928;2023-02-28T14:13:01;4.40;99.90
5881;DHT22;2966;52.598;10.928;2023-02-28T14:15:47;4.40;99.90
5881;DHT22;2966;52.598;10.928;2023-02-28T14:18:21;4.40;99.90
5881;DHT22;2966;52.598;10.928;2023-02-28T14:20:55;4.40;99.90
5881;DHT22;2966;52.598;10.928;2023-02-28T14:23:35;4.40;99.90
5881;DHT22;2966;52.598;10.928;2023-02-28T14:26:07;4.40;99.90
5881;DHT22;2966;52.598;10.928;2023-02-28T14:28:52;4.40;99.90
5881;DHT22;2966;52.598;10.928;2023-02-28T14:31:28;4.30;99.90
5881;DHT22;2966;52.598;10.928;2023-02-28T14:34:21;4.30;99.90
5881;DHT22;2966;52.598;10.928;2023-02-28T14:36:53;4.30;99.90
5881;DHT22;2966;52.598;10.928;2023-02-28T14:39:22;4.30;99.90
5881;DHT22;2966;52.598;10.928;2023-02-28T14:41:50;4.30;99.90
5881;DHT22;2966;52.598;10.928;2023-02-28T14:44:19;4.30;99.90
5881;DHT22;2966;52.598;10.928;2023-02-28T14:46:48;4.30;99.90
5881;DHT22;2966;52.598;10.928;2023-02-28T14:49:18;4.30;99.90
5881;DHT22;2966;52.598;10.928;2023-02-28T14:51:46;4.30;99.90
5881;DHT22;2966;52.598;10.928;2023-02-28T14:54:16;4.20;99.90
5881;DHT22;2966;52.598;10.928;2023-02-28T14:56:49;4.30;99.90
5881;DHT22;2966;52.598;10.928;2023-02-28T14:59:25;4.30;99.90
5881;DHT22;2966;52.598;10.928;2023-02-28T15:04:34;4.20;99.90
5881;DHT22;2966;52.598;10.928;2023-02-28T15:07:08;4.20;99.90
5881;DHT22;2966;52.598;10.928;2023-02-28T15:09:36;4.20;99.90
5881;DHT22;2966;52.598;10.928;2023-02-28T15:12:03;4.20;99.90
5881;DHT22;2966;52.598;10.928;2023-02-28T15:14:30;4.20;99.90
5881;DHT22;2966;52.598;10.928;2023-02-28T15:16:59;4.30;99.90
5881;DHT22;2966;52.598;10.928;2023-02-28T15:19:29;4.20;99.90
5881;DHT22;2966;52.598;10.928;2023-02-28T15:22:01;4.20;99.90
5881;DHT22;2966;52.598;10.928;2023-02-28T15:24:38;4.20;99.90
5881;DHT22;2966;52.598;10.928;2023-02-28T15:27:07;4.10;99.90
5881;DHT22;2966;52.598;10.928;2023-02-28T15:29:44;4.10;99.90
5881;DHT22;2966;52.598;10.928;2023-02-28T15:32:24;4.00;99.90
5881;DHT22;2966;52.598;10.928;2023-02-28T15:34:52;3.90;99.90
5881;DHT22;2966;52.598;10.928;2023-02-28T15:37:28;3.90;99.90
5881;DHT22;2966;52.598;10.928;2023-02-28T15:40:04;4.00;99.90
5881;DHT22;2966;52.598;10.928;2023-02-28T15:42:34;4.00;99.90
5881;DHT22;2966;52.598;10.928;2023-02-28T15:45:01;4.00;99.90
5881;DHT22;2966;52.598;10.928;2023-02-28T15:47:29;3.90;99.90
5881;DHT22;2966;52.598;10.928;2023-02-28T15:49:58;3.90;99.90
5881;DHT22;2966;52.598;10.928;2023-02-28T15:52:28;3.90;99.90
5881;DHT22;2966;52.598;10.928;2023-02-28T15:54:58;3.90;99.90
5881;DHT22;2966;52.598;10.928;2023-02-28T15:57:27;3.80;99.90
5881;DHT22;2966;52.598;10.928;2023-02-28T15:59:56;3.80;99.90
5881;DHT22;2966;52.598;10.928;2023-02-28T16:02:32;3.70;99.90
5881;DHT22;2966;52.598;10.928;2023-02-28T16:05:02;3.70;99.90
5881;DHT22;2966;52.598;10.928;2023-02-28T16:07:41;3.70;99.90
5881;DHT22;2966;52.598;10.928;2023-02-28T16:10:11;3.60;99.90
5881;DHT22;2966;52.598;10.928;2023-02-28T16:12:39;3.50;99.90
5881;DHT22;2966;52.598;10.928;2023-02-28T16:15:09;3.50;99.90
5881;DHT22;2966;52.598;10.928;2023-02-28T16:17:41;3.40;99.90
5881;DHT22;2966;52.598;10.928;2023-02-28T16:20:13;3.40;99.90
5881;DHT22;2966;52.598;10.928;2023-02-28T16:22:40;3.40;99.90
5881;DHT22;2966;52.598;10.928;2023-02-28T16:25:13;3.30;99.90
5881;DHT22;2966;52.598;10.928;2023-02-28T16:27:41;3.30;99.90
5881;DHT22;2966;52.598;10.928;2023-02-28T16:30:16;3.20;99.90
5881;DHT22;2966;52.598;10.928;2023-02-28T16:32:44;3.10;99.90
5881;DHT22;2966;52.598;10.928;2023-02-28T16:35:11;3.00;99.90
5881;DHT22;2966;52.598;10.928;2023-02-28T16:37:39;2.90;99.90